Time;durP1;ratioP1;P1;durP2;ratioP2;P2;SDS_P1;SDS_P2;PMS_P1;PMS_P2;Temp;Humidity;BMP_temperature;BMP_pressure;BME280_temperature;BME280_humidity;BME280_pressure;Samples;Min_cycle;Max_cycle;Signal;HPM_P1;HPM_P2
2022/01/03 00:00:09;;;;;;;67.15;15.63;;;;;;;;;;10439659;27;20067;-59
2022/01/03 00:05:10;;;;;;;145.90;16.52;;;;;;;;;;10441527;27;20500;-59
2022/01/03 00:10:09;;;;;;;125.63;16.85;;;;;;;;;;10441786;27;20066;-59
2022/01/03 00:15:09;;;;;;;106.88;14.90;;;;;;;;;;10422062;27;20098;-59
2022/01/03 00:20:10;;;;;;;60.72;14.43;;;;;;;;;;10440518;27;20093;-58
2022/01/03 00:25:15;;;;;;;99.47;14.70;;;;;;;;;;10437674;27;20225;-59
2022/01/03 00:30:18;;;;;;;91.60;14.50;;;;;;;;;;10438936;27;20093;-56
2022/01/03 00:35:18;;;;;;;64.20;12.63;;;;;;;;;;10439600;27;20067;-58
2022/01/03 00:40:18;;;;;;;40.63;10.88;;;;;;;;;;10438619;27;20470;-59
2022/01/03 00:45:16;;;;;;;47.90;11.27;;;;;;;;;;10419265;27;20508;-59
2022/01/03 00:50:16;;;;;;;22.55;8.93;;;;;;;;;;10416167;27;20075;-57
2022/01/03 00:55:16;;;;;;;15.55;9.85;;;;;;;;;;10438680;27;20035;-58
2022/01/03 01:00:15;;;;;;;14.13;9.48;;;;;;;;;;10437368;27;20047;-54
2022/01/03 01:05:13;;;;;;;13.15;8.02;;;;;;;;;;10418789;27;20172;-57
2022/01/03 01:10:12;;;;;;;11.30;7.85;;;;;;;;;;10417938;27;20499;-59
2022/01/03 01:15:14;;;;;;;8.98;7.18;;;;;;;;;;10437507;27;20058;-59
2022/01/03 01:20:15;;;;;;;8.55;7.55;;;;;;;;;;10419398;27;20083;-59
2022/01/03 01:30:34;;;;;;;20.55;17.40;;;;;;;;;;10392313;27;20491;-59
2022/01/03 01:35:37;;;;;;;13.52;10.85;;;;;;;;;;10416286;27;20188;-59
2022/01/03 01:40:42;;;;;;;86.57;10.68;;;;;;;;;;10418319;27;20039;-58
2022/01/03 01:45:43;;;;;;;42.85;8.70;;;;;;;;;;10418618;27;20047;-58
2022/01/03 01:50:42;;;;;;;94.78;16.42;;;;;;;;;;10414602;27;20069;-58
2022/01/03 01:55:48;;;;;;;66.80;8.45;;;;;;;;;;10416633;27;20082;-58
2022/01/03 02:00:50;;;;;;;20.73;7.28;;;;;;;;;;10413659;27;20393;-58
2022/01/03 02:06:03;;;;;;;8.65;7.75;;;;;;;;;;10417592;27;20480;-58
2022/01/03 02:11:04;;;;;;;54.13;11.82;;;;;;;;;;10417338;27;20442;-59
2022/01/03 02:16:05;;;;;;;6.75;5.78;;;;;;;;;;10415090;27;20085;-57
2022/01/03 02:21:14;;;;;;;10.98;6.47;;;;;;;;;;10416759;27;20055;-58
2022/01/03 02:26:14;;;;;;;12.60;6.97;;;;;;;;;;10416364;27;20078;-58
2022/01/03 02:31:12;;;;;;;13.77;6.45;;;;;;;;;;10415821;28;20067;-56
2022/01/03 02:36:11;;;;;;;6.70;6.07;;;;;;;;;;10434581;28;20074;-57
2022/01/03 02:41:11;;;;;;;7.18;6.28;;;;;;;;;;10415867;28;20072;-57
2022/01/03 02:46:11;;;;;;;16.90;12.38;;;;;;;;;;10417670;27;20090;-57
2022/01/03 02:51:09;;;;;;;75.75;20.75;;;;;;;;;;10442682;27;20073;-58
2022/01/03 02:56:07;;;;;;;65.88;10.85;;;;;;;;;;10424211;27;20498;-55
2022/01/03 03:01:07;;;;;;;180.98;14.70;;;;;;;;;;10423593;27;20078;-58
2022/01/03 03:06:13;;;;;;;31.27;9.98;;;;;;;;;;10421517;27;20606;-58
2022/01/03 03:11:12;;;;;;;47.05;8.85;;;;;;;;;;10423087;27;20491;-58
2022/01/03 03:16:12;;;;;;;31.92;8.85;;;;;;;;;;10442117;27;20058;-58
2022/01/03 03:21:10;;;;;;;41.58;10.07;;;;;;;;;;10423516;27;20075;-58
2022/01/03 03:26:09;;;;;;;45.28;9.70;;;;;;;;;;10422371;27;20047;-59
2022/01/03 03:31:08;;;;;;;39.25;9.65;;;;;;;;;;10421079;27;20047;-58
2022/01/03 03:36:13;;;;;;;43.50;8.38;;;;;;;;;;10423154;27;20086;-58
2022/01/03 03:41:12;;;;;;;58.13;8.68;;;;;;;;;;10418340;27;20051;-58
2022/01/03 03:46:16;;;;;;;140.98;16.33;;;;;;;;;;10422273;27;20367;-57
2022/01/03 03:51:16;;;;;;;86.60;13.95;;;;;;;;;;10422680;27;20061;-58
2022/01/03 03:56:16;;;;;;;81.70;16.15;;;;;;;;;;10421085;27;20490;-58
2022/01/03 04:01:14;;;;;;;86.90;13.20;;;;;;;;;;10421510;27;20101;-58
2022/01/03 04:06:20;;;;;;;112.63;12.63;;;;;;;;;;10440179;27;20073;-58
2022/01/03 04:11:23;;;;;;;189.32;12.90;;;;;;;;;;10421251;27;20055;-55
2022/01/03 04:16:22;;;;;;;45.30;13.90;;;;;;;;;;10421045;27;20043;-57
2022/01/03 04:21:22;;;;;;;68.20;13.35;;;;;;;;;;10439834;27;20457;-57
2022/01/03 04:26:21;;;;;;;120.30;35.08;;;;;;;;;;10420301;27;20107;-57
2022/01/03 04:31:19;;;;;;;319.27;111.63;;;;;;;;;;10438160;27;20070;-58
2022/01/03 04:36:18;;;;;;;161.82;16.45;;;;;;;;;;10419955;27;20050;-59
2022/01/03 04:41:18;;;;;;;77.05;14.45;;;;;;;;;;10419604;27;20073;-57
2022/01/03 04:46:16;;;;;;;49.85;13.02;;;;;;;;;;10438288;27;20506;-57
2022/01/03 04:51:15;;;;;;;62.15;11.05;;;;;;;;;;10438117;27;20082;-57
2022/01/03 04:56:14;;;;;;;107.22;13.52;;;;;;;;;;10419506;27;20058;-58
2022/01/03 05:01:16;;;;;;;93.47;11.35;;;;;;;;;;10418914;27;20051;-57
2022/01/03 05:06:16;;;;;;;116.75;17.90;;;;;;;;;;10418371;27;20085;-55
2022/01/03 05:11:16;;;;;;;134.32;14.10;;;;;;;;;;10417945;27;20319;-57
2022/01/03 05:16:16;;;;;;;116.20;13.57;;;;;;;;;;10418613;27;20493;-57
2022/01/03 05:21:15;;;;;;;170.98;15.07;;;;;;;;;;10416511;27;20074;-57
2022/01/03 05:26:16;;;;;;;90.25;12.80;;;;;;;;;;10417317;27;20070;-57
2022/01/03 05:31:16;;;;;;;111.80;13.15;;;;;;;;;;10417305;27;20073;-57
2022/01/03 05:36:16;;;;;;;105.53;13.77;;;;;;;;;;10417600;27;20043;-53
2022/01/03 05:41:15;;;;;;;144.35;15.27;;;;;;;;;;10434773;27;20078;-58
2022/01/03 05:46:14;;;;;;;131.60;14.95;;;;;;;;;;10417630;27;20081;-58
2022/01/03 05:51:16;;;;;;;92.00;14.35;;;;;;;;;;10418115;27;20082;-58
2022/01/03 05:56:14;;;;;;;116.35;15.32;;;;;;;;;;10436881;27;20144;-58
2022/01/03 06:01:13;;;;;;;130.27;16.38;;;;;;;;;;10417486;27;20047;-58
2022/01/03 06:06:30;;;;;;;115.80;14.90;;;;;;;;;;10434652;27;20179;-58
2022/01/03 06:11:31;;;;;;;85.13;12.23;;;;;;;;;;10412451;27;20074;-58
2022/01/03 06:16:30;;;;;;;136.73;14.63;;;;;;;;;;10417198;27;20050;-58
2022/01/03 06:21:29;;;;;;;113.03;13.45;;;;;;;;;;10428228;27;20092;-57
2022/01/03 06:26:27;;;;;;;61.53;15.70;;;;;;;;;;10415415;27;20082;-58
2022/01/03 06:31:28;;;;;;;26.70;10.77;;;;;;;;;;10434508;28;20090;-58
2022/01/03 06:36:26;;;;;;;49.65;12.38;;;;;;;;;;10434599;28;20057;-58
2022/01/03 06:41:32;;;;;;;53.72;11.50;;;;;;;;;;10416426;28;20051;-58
2022/01/03 06:46:32;;;;;;;42.83;11.93;;;;;;;;;;10410094;28;20079;-58
2022/01/03 06:51:34;;;;;;;58.97;28.50;;;;;;;;;;10431527;28;20074;-58
2022/01/03 06:56:36;;;;;;;76.20;24.00;;;;;;;;;;10414238;28;20058;-58
2022/01/03 07:01:36;;;;;;;25.60;13.52;;;;;;;;;;10431884;28;20116;-55
2022/01/03 07:06:36;;;;;;;13.50;11.57;;;;;;;;;;10413695;28;20077;-56
2022/01/03 07:11:35;;;;;;;13.75;12.25;;;;;;;;;;10432837;28;20082;-58
2022/01/03 07:21:51;;;;;;;14.15;12.32;;;;;;;;;;10428674;28;20319;-59
2022/01/03 07:26:49;;;;;;;14.13;11.82;;;;;;;;;;10423555;28;20105;-59
2022/01/03 07:31:47;;;;;;;19.52;15.25;;;;;;;;;;10431054;27;20136;-58
2022/01/03 07:36:46;;;;;;;14.07;11.88;;;;;;;;;;10433018;27;20111;-59
2022/01/03 07:41:45;;;;;;;15.18;13.60;;;;;;;;;;10429478;27;20487;-58
2022/01/03 07:46:44;;;;;;;12.48;11.10;;;;;;;;;;10428770;27;20071;-58
2022/01/03 07:51:42;;;;;;;12.68;11.38;;;;;;;;;;10434791;27;20078;-59
2022/01/03 07:56:40;;;;;;;11.13;9.85;;;;;;;;;;10439901;27;20082;-58
2022/01/03 08:01:40;;;;;;;12.88;10.68;;;;;;;;;;10439849;27;20520;-59
2022/01/03 08:06:39;;;;;;;12.57;8.88;;;;;;;;;;10439521;27;20537;-58
2022/01/03 08:11:38;;;;;;;12.00;10.20;;;;;;;;;;10438805;27;20078;-58
2022/01/03 08:16:36;;;;;;;13.13;11.70;;;;;;;;;;10438458;27;20074;-58
2022/01/03 08:21:36;;;;;;;10.65;9.55;;;;;;;;;;10439111;27;20685;-59
2022/01/03 08:26:35;;;;;;;24.00;18.85;;;;;;;;;;10439143;27;20094;-59
2022/01/03 08:31:33;;;;;;;17.05;13.30;;;;;;;;;;10438776;27;20579;-59
2022/01/03 08:36:32;;;;;;;22.58;17.60;;;;;;;;;;10438832;27;20069;-59
2022/01/03 08:41:32;;;;;;;18.70;15.25;;;;;;;;;;10438663;27;20082;-59
2022/01/03 08:46:30;;;;;;;16.77;12.10;;;;;;;;;;10437888;27;20065;-59
2022/01/03 08:51:28;;;;;;;14.20;12.50;;;;;;;;;;10438245;27;20512;-59
2022/01/03 08:56:27;;;;;;;12.82;10.90;;;;;;;;;;10436899;27;20145;-59
2022/01/03 09:01:26;;;;;;;11.85;10.52;;;;;;;;;;10438053;27;20078;-59
2022/01/03 09:06:25;;;;;;;15.63;11.68;;;;;;;;;;10437240;27;20074;-59
2022/01/03 09:11:23;;;;;;;13.68;10.40;;;;;;;;;;10436527;27;20094;-59
2022/01/03 09:16:21;;;;;;;17.50;12.63;;;;;;;;;;10436372;27;20515;-59
2022/01/03 09:21:21;;;;;;;10.60;9.05;;;;;;;;;;10437154;27;20055;-58
2022/01/03 09:31:38;;;;;;;13.68;10.43;;;;;;;;;;10436188;27;20496;-59
2022/01/03 09:36:38;;;;;;;27.27;18.73;;;;;;;;;;10435766;27;20525;-59
2022/01/03 09:41:38;;;;;;;28.58;20.88;;;;;;;;;;10436446;27;20054;-60
2022/01/03 09:46:38;;;;;;;36.75;27.88;;;;;;;;;;10431573;27;20058;-59
2022/01/03 09:51:38;;;;;;;57.60;41.63;;;;;;;;;;10436756;27;20074;-59
2022/01/03 09:56:37;;;;;;;62.05;43.13;;;;;;;;;;10435325;27;20502;-59
2022/01/03 10:01:36;;;;;;;50.95;35.78;;;;;;;;;;10434271;27;20070;-60
2022/01/03 10:06:34;;;;;;;41.67;29.70;;;;;;;;;;10434524;27;20082;-60
2022/01/03 10:11:34;;;;;;;20.75;15.50;;;;;;;;;;10434432;27;20086;-59
2022/01/03 10:16:37;;;;;;;11.63;10.00;;;;;;;;;;10434281;27;20075;-59
2022/01/03 10:21:55;;;;;;;15.07;10.52;;;;;;;;;;10430432;27;20539;-58
2022/01/03 10:26:56;;;;;;;10.77;9.68;;;;;;;;;;10434163;27;20548;-59
2022/01/03 10:31:55;;;;;;;11.70;8.38;;;;;;;;;;10434930;28;20079;-59
2022/01/03 10:36:55;;;;;;;10.77;9.07;;;;;;;;;;10433657;28;20101;-59
2022/01/03 10:41:55;;;;;;;12.93;8.70;;;;;;;;;;10434478;28;20070;-59
2022/01/03 10:46:54;;;;;;;10.95;8.80;;;;;;;;;;10433519;28;20077;-59
2022/01/03 10:51:52;;;;;;;46.90;29.40;;;;;;;;;;10433160;28;20082;-59
2022/01/03 10:56:51;;;;;;;9.68;8.77;;;;;;;;;;10434629;28;20474;-59
2022/01/03 11:01:53;;;;;;;13.57;11.95;;;;;;;;;;10435395;27;20031;-59
2022/01/03 11:10:43;;;;;;;55.05;31.00;;;;;;;;;;10437869;27;20063;-58
2022/01/03 11:12:24;;;;;;;44.88;28.05;;;;;;;;;;10440990;27;20120;-59
2022/01/03 11:17:24;;;;;;;17.75;13.52;;;;;;;;;;10441879;27;20074;-59
2022/01/03 11:22:38;;;;;;;21.90;16.10;;;;;;;;;;10443000;27;20657;-59
2022/01/03 11:27:40;;;;;;;14.82;12.25;;;;;;;;;;10441830;27;20075;-58
2022/01/03 11:32:43;;;;;;;16.88;13.32;;;;;;;;;;10441723;27;20078;-58
2022/01/03 11:37:42;;;;;;;16.75;12.68;;;;;;;;;;10441182;27;20071;-58
2022/01/03 11:42:42;;;;;;;11.27;9.10;;;;;;;;;;10441976;27;20419;-59
2022/01/03 11:47:41;;;;;;;12.20;8.52;;;;;;;;;;10440542;27;20055;-59
2022/01/03 11:52:41;;;;;;;18.33;11.13;;;;;;;;;;10441278;27;20527;-59
2022/01/03 11:58:00;;;;;;;24.77;16.30;;;;;;;;;;10441184;27;20511;-59
2022/01/03 12:08:20;;;;;;;10.68;9.32;;;;;;;;;;10439797;27;20065;-59
2022/01/03 12:13:21;;;;;;;42.03;24.88;;;;;;;;;;10420864;27;20086;-59
2022/01/03 12:18:30;;;;;;;22.10;14.48;;;;;;;;;;10440236;27;20050;-59
2022/01/03 12:23:39;;;;;;;33.28;20.95;;;;;;;;;;10438924;27;20580;-59
2022/01/03 12:28:56;;;;;;;19.50;16.35;;;;;;;;;;10436549;27;20070;-59
2022/01/03 12:34:12;;;;;;;26.58;22.02;;;;;;;;;;10439998;27;20094;-59
2022/01/03 12:39:11;;;;;;;22.85;17.05;;;;;;;;;;10438299;27;20067;-59
2022/01/03 12:44:10;;;;;;;24.10;18.45;;;;;;;;;;10436276;27;20117;-59
2022/01/03 12:49:24;;;;;;;74.03;51.38;;;;;;;;;;10439634;27;20460;-60
2022/01/03 12:54:37;;;;;;;14.52;10.55;;;;;;;;;;10434859;27;20457;-59
2022/01/03 12:59:38;;;;;;;10.48;9.32;;;;;;;;;;10437267;27;20110;-59
2022/01/03 13:04:46;;;;;;;15.65;10.80;;;;;;;;;;10436728;27;20058;-59
2022/01/03 13:09:45;;;;;;;15.07;10.65;;;;;;;;;;10436078;27;20074;-59
2022/01/03 13:14:45;;;;;;;22.20;16.48;;;;;;;;;;10430217;27;20052;-59
2022/01/03 13:19:44;;;;;;;13.93;10.95;;;;;;;;;;10436005;27;20465;-59
2022/01/03 13:24:44;;;;;;;24.35;16.70;;;;;;;;;;10438018;27;20071;-59
2022/01/03 13:29:45;;;;;;;35.70;23.65;;;;;;;;;;10437343;27;20058;-59
2022/01/03 13:34:45;;;;;;;10.65;9.43;;;;;;;;;;10435622;27;20097;-59
2022/01/03 13:39:44;;;;;;;19.88;14.60;;;;;;;;;;10435503;27;20062;-59
2022/01/03 13:45:00;;;;;;;38.58;26.25;;;;;;;;;;10435886;27;20066;-59
2022/01/03 13:50:00;;;;;;;23.45;16.80;;;;;;;;;;10430208;27;20059;-59
2022/01/03 13:55:02;;;;;;;38.60;27.95;;;;;;;;;;10431058;27;20050;-58
2022/01/03 14:00:00;;;;;;;95.40;63.05;;;;;;;;;;10436879;27;20424;-59
2022/01/03 14:05:00;;;;;;;44.67;35.40;;;;;;;;;;10433076;27;20071;-59
2022/01/03 14:09:58;;;;;;;39.78;34.13;;;;;;;;;;10429208;27;20093;-61
2022/01/03 14:14:58;;;;;;;23.58;18.50;;;;;;;;;;10435018;27;20054;-58
2022/01/03 14:20:01;;;;;;;15.50;13.23;;;;;;;;;;10434496;27;20075;-59
2022/01/03 14:25:00;;;;;;;23.13;20.02;;;;;;;;;;10429053;27;20071;-59
2022/01/03 14:30:11;;;;;;;24.25;19.55;;;;;;;;;;10428247;27;20462;-59
2022/01/03 14:35:15;;;;;;;31.92;25.52;;;;;;;;;;10435191;28;20456;-60
2022/01/03 14:40:13;;;;;;;65.93;42.78;;;;;;;;;;10434622;27;20451;-59
2022/01/03 14:45:14;;;;;;;63.70;38.50;;;;;;;;;;10442915;27;20078;-60
2022/01/03 14:50:13;;;;;;;41.05;29.13;;;;;;;;;;10443570;27;20066;-60
2022/01/03 14:55:14;;;;;;;43.17;30.70;;;;;;;;;;10443536;27;20059;-59
2022/01/03 15:00:14;;;;;;;86.65;49.72;;;;;;;;;;10421145;27;20071;-60
2022/01/03 15:05:15;;;;;;;138.07;76.65;;;;;;;;;;10443170;27;20465;-59
2022/01/03 15:10:16;;;;;;;114.18;66.93;;;;;;;;;;10442841;27;20059;-59
2022/01/03 15:15:20;;;;;;;46.25;32.50;;;;;;;;;;10442271;27;20110;-59
2022/01/03 15:20:18;;;;;;;62.55;48.38;;;;;;;;;;10440609;27;20511;-59
2022/01/03 15:25:19;;;;;;;25.92;19.77;;;;;;;;;;10442782;27;20526;-59
2022/01/03 15:30:22;;;;;;;31.02;25.13;;;;;;;;;;10435607;27;20059;-59
2022/01/03 15:35:21;;;;;;;19.85;14.88;;;;;;;;;;10441088;27;20097;-59
2022/01/03 15:40:21;;;;;;;19.45;15.48;;;;;;;;;;10440000;27;20106;-59
2022/01/03 15:45:19;;;;;;;18.10;13.68;;;;;;;;;;10442832;27;20082;-59
2022/01/03 15:50:18;;;;;;;20.88;13.10;;;;;;;;;;10442351;27;20058;-59
2022/01/03 15:55:16;;;;;;;42.00;32.03;;;;;;;;;;10441136;27;20071;-60
2022/01/03 16:00:17;;;;;;;25.75;23.00;;;;;;;;;;10441497;27;20063;-59
2022/01/03 16:05:15;;;;;;;20.50;15.82;;;;;;;;;;10441126;27;20070;-59
2022/01/03 16:10:14;;;;;;;17.48;12.57;;;;;;;;;;10440827;27;20146;-59
2022/01/03 16:15:12;;;;;;;26.80;20.80;;;;;;;;;;10439220;27;20523;-59
2022/01/03 16:20:12;;;;;;;37.78;26.27;;;;;;;;;;10439169;27;20050;-59
2022/01/03 16:25:11;;;;;;;50.00;34.40;;;;;;;;;;10437636;27;20483;-58
2022/01/03 16:30:10;;;;;;;43.10;28.25;;;;;;;;;;10439630;27;20526;-58
2022/01/03 16:35:09;;;;;;;25.55;18.70;;;;;;;;;;10435886;27;20071;-59
2022/01/03 16:40:10;;;;;;;23.40;18.92;;;;;;;;;;10439579;27;20070;-59
2022/01/03 16:45:09;;;;;;;31.38;23.67;;;;;;;;;;10439755;27;20079;-60
2022/01/03 16:50:08;;;;;;;27.42;19.77;;;;;;;;;;10440246;27;20070;-60
2022/01/03 16:55:07;;;;;;;34.20;23.42;;;;;;;;;;10438547;27;20067;-60
2022/01/03 17:00:07;;;;;;;34.85;23.73;;;;;;;;;;10439088;27;20078;-59
2022/01/03 17:05:06;;;;;;;29.63;20.02;;;;;;;;;;10434363;27;20070;-60
2022/01/03 17:10:05;;;;;;;33.88;22.13;;;;;;;;;;10436711;27;20522;-59
2022/01/03 17:15:04;;;;;;;30.60;22.10;;;;;;;;;;10431748;27;20082;-59
2022/01/03 17:20:04;;;;;;;23.95;16.77;;;;;;;;;;10437304;27;20063;-60
2022/01/03 17:25:02;;;;;;;20.60;16.63;;;;;;;;;;10438223;27;20150;-60
2022/01/03 17:30:00;;;;;;;21.25;15.40;;;;;;;;;;10437941;27;20067;-60
2022/01/03 17:34:59;;;;;;;20.98;16.73;;;;;;;;;;10432936;27;20121;-60
2022/01/03 17:40:01;;;;;;;20.30;17.13;;;;;;;;;;10430484;27;20059;-60
2022/01/03 17:44:59;;;;;;;18.50;14.93;;;;;;;;;;10431508;27;20070;-59
2022/01/03 17:49:58;;;;;;;12.23;10.80;;;;;;;;;;10433374;27;20527;-59
2022/01/03 17:54:57;;;;;;;13.98;10.18;;;;;;;;;;10431397;27;21611;-60
2022/01/03 17:59:57;;;;;;;12.70;9.02;;;;;;;;;;10432816;27;20507;-60
2022/01/03 18:04:56;;;;;;;25.40;11.15;;;;;;;;;;10437648;27;20067;-60
2022/01/03 18:09:54;;;;;;;23.80;17.10;;;;;;;;;;10432857;27;20070;-60
2022/01/03 18:14:53;;;;;;;21.20;14.43;;;;;;;;;;10429458;27;20098;-60
2022/01/03 18:19:52;;;;;;;22.55;16.73;;;;;;;;;;10437539;27;20100;-60
2022/01/03 18:24:52;;;;;;;18.00;13.35;;;;;;;;;;10435745;27;20071;-60
2022/01/03 18:29:50;;;;;;;16.38;13.32;;;;;;;;;;10436141;27;20070;-60
2022/01/03 18:34:48;;;;;;;20.27;15.25;;;;;;;;;;10437914;28;20067;-60
2022/01/03 18:39:48;;;;;;;23.92;16.50;;;;;;;;;;10437686;28;20068;-60
2022/01/03 18:44:46;;;;;;;13.73;10.80;;;;;;;;;;10437683;28;20081;-59
2022/01/03 18:49:46;;;;;;;15.30;10.70;;;;;;;;;;10438497;28;20440;-59
2022/01/03 18:54:44;;;;;;;15.63;12.05;;;;;;;;;;10434750;28;20070;-60
2022/01/03 18:59:44;;;;;;;19.27;14.43;;;;;;;;;;10434445;27;20039;-60
2022/01/03 19:04:42;;;;;;;15.57;12.18;;;;;;;;;;10438278;27;20500;-60
2022/01/03 19:09:41;;;;;;;26.13;18.33;;;;;;;;;;10432760;27;20067;-60
2022/01/03 19:14:39;;;;;;;26.98;17.55;;;;;;;;;;10429723;28;20077;-60
2022/01/03 19:19:41;;;;;;;36.30;23.83;;;;;;;;;;10425494;28;20105;-58
2022/01/03 19:24:39;;;;;;;35.20;21.48;;;;;;;;;;10424103;27;20067;-59
2022/01/03 19:29:38;;;;;;;23.73;15.43;;;;;;;;;;10435983;27;20076;-60
2022/01/03 19:39:52;;;;;;;;;;;;;;;;;;10438805;27;20097;-59
2022/01/03 19:44:51;;;;;;;12.48;10.90;;;;;;;;;;10441496;27;19975;-58
2022/01/03 19:49:50;;;;;;;14.80;9.80;;;;;;;;;;10443124;27;20070;-59
2022/01/03 19:54:48;;;;;;;17.52;11.98;;;;;;;;;;10442070;27;20071;-60
2022/01/03 19:59:46;;;;;;;14.13;10.20;;;;;;;;;;10443279;27;20070;-59
2022/01/03 20:04:48;;;;;;;16.83;12.70;;;;;;;;;;10440531;27;20054;-60
2022/01/03 20:09:47;;;;;;;19.75;14.65;;;;;;;;;;10431012;27;20086;-59
2022/01/03 20:14:46;;;;;;;12.90;8.60;;;;;;;;;;10438683;27;20078;-60
2022/01/03 20:19:45;;;;;;;13.63;9.68;;;;;;;;;;10437896;27;20070;-59
2022/01/03 20:24:44;;;;;;;12.90;8.63;;;;;;;;;;10434165;27;20110;-60
2022/01/03 20:29:42;;;;;;;14.23;7.90;;;;;;;;;;10440934;27;20070;-60
2022/01/03 20:34:42;;;;;;;12.52;9.43;;;;;;;;;;10440979;27;20113;-60
2022/01/03 20:39:42;;;;;;;19.75;13.95;;;;;;;;;;10436615;27;20071;-60
2022/01/03 20:44:41;;;;;;;14.68;10.80;;;;;;;;;;10432217;27;20499;-59
2022/01/03 20:49:40;;;;;;;15.00;10.43;;;;;;;;;;10429592;27;20078;-60
2022/01/03 20:54:38;;;;;;;15.43;10.02;;;;;;;;;;10434798;27;20078;-60
2022/01/03 20:59:41;;;;;;;12.90;9.68;;;;;;;;;;10438238;27;20503;-61
2022/01/03 21:04:39;;;;;;;14.05;10.35;;;;;;;;;;10434314;27;20062;-59
2022/01/03 21:09:38;;;;;;;13.25;9.68;;;;;;;;;;10425007;27;20051;-59
2022/01/03 21:14:36;;;;;;;13.93;9.63;;;;;;;;;;10427666;27;20078;-59
2022/01/03 21:19:36;;;;;;;11.95;8.48;;;;;;;;;;10427020;27;20525;-59
2022/01/03 21:24:34;;;;;;;11.88;9.18;;;;;;;;;;10434555;27;20058;-59
2022/01/03 21:29:33;;;;;;;11.25;9.73;;;;;;;;;;10437439;27;20071;-59
2022/01/03 21:34:31;;;;;;;11.55;8.18;;;;;;;;;;10436656;27;20078;-59
2022/01/03 21:39:31;;;;;;;13.25;9.68;;;;;;;;;;10435426;27;20035;-60
2022/01/03 21:44:29;;;;;;;14.45;9.63;;;;;;;;;;10436180;27;20051;-60
2022/01/03 21:49:28;;;;;;;8.98;7.53;;;;;;;;;;10436507;27;20174;-60
2022/01/03 21:54:28;;;;;;;9.57;6.95;;;;;;;;;;10434627;27;20090;-60
2022/01/03 21:59:30;;;;;;;10.63;6.28;;;;;;;;;;10438041;27;20464;-60
2022/01/03 22:04:28;;;;;;;9.85;7.30;;;;;;;;;;10434902;27;20550;-60
2022/01/03 22:09:27;;;;;;;10.60;5.80;;;;;;;;;;10435093;27;20073;-59
2022/01/03 22:14:25;;;;;;;9.43;6.85;;;;;;;;;;10431579;27;20473;-60
2022/01/03 22:19:25;;;;;;;14.77;9.82;;;;;;;;;;10432697;27;20070;-60
2022/01/03 22:24:23;;;;;;;8.05;5.95;;;;;;;;;;10431875;27;20075;-60
2022/01/03 22:29:21;;;;;;;9.27;5.25;;;;;;;;;;10430957;27;20066;-60
2022/01/03 22:34:20;;;;;;;7.47;5.70;;;;;;;;;;10433058;27;20071;-60
2022/01/03 22:39:19;;;;;;;6.68;4.40;;;;;;;;;;10433206;28;20571;-60
2022/01/03 22:44:18;;;;;;;6.95;4.90;;;;;;;;;;10434003;28;20499;-58
2022/01/03 22:49:16;;;;;;;10.70;6.03;;;;;;;;;;10433157;28;20065;-59
2022/01/03 22:54:14;;;;;;;7.82;5.20;;;;;;;;;;10433807;28;20526;-59
2022/01/03 22:59:16;;;;;;;6.07;5.05;;;;;;;;;;10433259;28;20059;-59
2022/01/03 23:04:14;;;;;;;7.78;4.93;;;;;;;;;;10432166;27;20502;-59
2022/01/03 23:09:12;;;;;;;8.48;5.70;;;;;;;;;;10438342;27;20051;-60
2022/01/03 23:14:11;;;;;;;7.93;6.10;;;;;;;;;;10437098;27;20071;-60
2022/01/03 23:19:10;;;;;;;12.02;5.50;;;;;;;;;;10441006;27;20063;-60
2022/01/03 23:24:09;;;;;;;7.57;5.68;;;;;;;;;;10440046;27;20066;-60
2022/01/03 23:29:07;;;;;;;8.52;5.90;;;;;;;;;;10439975;27;20075;-60
2022/01/03 23:34:10;;;;;;;10.23;6.43;;;;;;;;;;10440289;27;21048;-60
2022/01/03 23:39:10;;;;;;;8.60;6.45;;;;;;;;;;10433995;27;20063;-59
2022/01/03 23:44:08;;;;;;;10.07;6.47;;;;;;;;;;10439876;27;20058;-60
2022/01/03 23:49:07;;;;;;;8.93;6.40;;;;;;;;;;10437924;27;20070;-60
2022/01/03 23:54:05;;;;;;;8.18;5.13;;;;;;;;;;10436955;27;20503;-60
2022/01/03 23:59:05;;;;;;;10.88;7.00;;;;;;;;;;10435736;27;20074;-61
